sensor_id;sensor_type;location;lat;lon;timestamp;temperature;humidity
63897;DHT22;50063;52.084;5.414;2022-07-11T00:00:51;19.10;99.90
63897;DHT22;50063;52.084;5.414;2022-07-11T00:03:18;19.10;99.90
63897;DHT22;50063;52.084;5.414;2022-07-11T00:05:45;19.10;99.90
63897;DHT22;50063;52.084;5.414;2022-07-11T00:08:12;19.10;99.90
63897;DHT22;50063;52.084;5.414;2022-07-11T00:10:38;19.20;99.90
63897;DHT22;50063;52.084;5.414;2022-07-11T00:13:05;19.20;99.90
63897;DHT22;50063;52.084;5.414;2022-07-11T00:15:32;19.20;99.90
63897;DHT22;50063;52.084;5.414;2022-07-11T00:17:58;19.10;99.90
63897;DHT22;50063;52.084;5.414;2022-07-11T00:20:25;19.20;99.90
63897;DHT22;50063;52.084;5.414;2022-07-11T00:22:52;18.90;99.90
63897;DHT22;50063;52.084;5.414;2022-07-11T00:25:18;19.00;99.90
63897;DHT22;50063;52.084;5.414;2022-07-11T00:27:45;19.00;99.90
63897;DHT22;50063;52.084;5.414;2022-07-11T00:30:17;19.00;99.90
63897;DHT22;50063;52.084;5.414;2022-07-11T00:32:43;19.10;99.90
63897;DHT22;50063;52.084;5.414;2022-07-11T00:35:10;19.10;99.90
63897;DHT22;50063;52.084;5.414;2022-07-11T00:37:37;19.10;99.90
63897;DHT22;50063;52.084;5.414;2022-07-11T00:40:04;19.00;99.90
63897;DHT22;50063;52.084;5.414;2022-07-11T00:42:31;19.20;99.90
63897;DHT22;50063;52.084;5.414;2022-07-11T00:44:58;19.10;99.90
63897;DHT22;50063;52.084;5.414;2022-07-11T00:47:24;19.10;99.90
63897;DHT22;50063;52.084;5.414;2022-07-11T00:49:51;19.10;99.90
63897;DHT22;50063;52.084;5.414;2022-07-11T00:52:18;19.10;99.90
63897;DHT22;50063;52.084;5.414;2022-07-11T00:54:45;19.20;99.90
63897;DHT22;50063;52.084;5.414;2022-07-11T00:57:12;19.20;99.90
63897;DHT22;50063;52.084;5.414;2022-07-11T00:59:39;19.10;99.90
63897;DHT22;50063;52.084;5.414;2022-07-11T01:02:06;19.10;99.90
63897;DHT22;50063;52.084;5.414;2022-07-11T01:04:33;19.10;99.90
63897;DHT22;50063;52.084;5.414;2022-07-11T01:07:01;19.00;99.90
63897;DHT22;50063;52.084;5.414;2022-07-11T01:09:28;19.00;99.90
63897;DHT22;50063;52.084;5.414;2022-07-11T01:11:54;18.90;99.90
63897;DHT22;50063;52.084;5.414;2022-07-11T01:14:21;19.00;99.90
63897;DHT22;50063;52.084;5.414;2022-07-11T01:16:47;19.00;99.90
63897;DHT22;50063;52.084;5.414;2022-07-11T01:19:14;18.90;99.90
63897;DHT22;50063;52.084;5.414;2022-07-11T01:21:40;18.90;99.90
63897;DHT22;50063;52.084;5.414;2022-07-11T01:24:09;19.00;99.90
63897;DHT22;50063;52.084;5.414;2022-07-11T01:26:36;19.00;99.90
63897;DHT22;50063;52.084;5.414;2022-07-11T01:29:07;19.00;99.90
63897;DHT22;50063;52.084;5.414;2022-07-11T01:31:34;18.90;99.90
63897;DHT22;50063;52.084;5.414;2022-07-11T01:34:01;18.90;99.90
63897;DHT22;50063;52.084;5.414;2022-07-11T01:36:27;18.90;99.90
63897;DHT22;50063;52.084;5.414;2022-07-11T01:38:54;18.90;99.90
63897;DHT22;50063;52.084;5.414;2022-07-11T01:41:20;18.90;99.90
63897;DHT22;50063;52.084;5.414;2022-07-11T01:43:47;18.90;99.90
63897;DHT22;50063;52.084;5.414;2022-07-11T01:46:14;18.80;99.90
63897;DHT22;50063;52.084;5.414;2022-07-11T01:48:41;18.80;99.90
63897;DHT22;50063;52.084;5.414;2022-07-11T01:51:08;18.80;99.90
63897;DHT22;50063;52.084;5.414;2022-07-11T01:53:35;18.80;99.90
63897;DHT22;50063;52.084;5.414;2022-07-11T01:56:01;18.80;99.90
63897;DHT22;50063;52.084;5.414;2022-07-11T01:58:48;18.80;99.90
63897;DHT22;50063;52.084;5.414;2022-07-11T02:01:15;18.90;99.90
63897;DHT22;50063;52.084;5.414;2022-07-11T02:03:41;18.80;99.90
63897;DHT22;50063;52.084;5.414;2022-07-11T02:06:09;18.70;99.90
63897;DHT22;50063;52.084;5.414;2022-07-11T02:08:35;18.70;99.90
63897;DHT22;50063;52.084;5.414;2022-07-11T02:11:03;18.60;99.90
63897;DHT22;50063;52.084;5.414;2022-07-11T02:13:29;18.70;99.90
63897;DHT22;50063;52.084;5.414;2022-07-11T02:15:56;18.70;99.90
63897;DHT22;50063;52.084;5.414;2022-07-11T02:18:23;18.80;99.90
63897;DHT22;50063;52.084;5.414;2022-07-11T02:20:49;18.70;99.90
63897;DHT22;50063;52.084;5.414;2022-07-11T02:23:16;18.80;99.90
63897;DHT22;50063;52.084;5.414;2022-07-11T02:25:43;18.70;99.90
63897;DHT22;50063;52.084;5.414;2022-07-11T02:28:10;18.80;99.90
63897;DHT22;50063;52.084;5.414;2022-07-11T02:30:37;18.80;99.90
63897;DHT22;50063;52.084;5.414;2022-07-11T02:33:04;18.80;99.90
63897;DHT22;50063;52.084;5.414;2022-07-11T02:35:31;18.80;99.90
63897;DHT22;50063;52.084;5.414;2022-07-11T02:37:58;18.80;99.90
63897;DHT22;50063;52.084;5.414;2022-07-11T02:40:25;18.80;99.90
63897;DHT22;50063;52.084;5.414;2022-07-11T02:42:53;18.80;99.90
63897;DHT22;50063;52.084;5.414;2022-07-11T02:45:20;18.80;99.90
63897;DHT22;50063;52.084;5.414;2022-07-11T02:47:46;18.90;99.90
63897;DHT22;50063;52.084;5.414;2022-07-11T02:50:13;18.80;99.90
63897;DHT22;50063;52.084;5.414;2022-07-11T02:52:41;18.80;99.90
63897;DHT22;50063;52.084;5.414;2022-07-11T02:55:08;18.80;99.90
63897;DHT22;50063;52.084;5.414;2022-07-11T02:57:35;18.90;99.90
63897;DHT22;50063;52.084;5.414;2022-07-11T03:00:03;18.90;99.90
63897;DHT22;50063;52.084;5.414;2022-07-11T03:02:31;18.80;99.90
63897;DHT22;50063;52.084;5.414;2022-07-11T03:04:57;18.90;99.90
63897;DHT22;50063;52.084;5.414;2022-07-11T03:07:27;18.90;99.90
63897;DHT22;50063;52.084;5.414;2022-07-11T03:09:54;18.80;99.90
63897;DHT22;50063;52.084;5.414;2022-07-11T03:12:21;18.80;99.90
63897;DHT22;50063;52.084;5.414;2022-07-11T03:14:48;18.80;99.90
63897;DHT22;50063;52.084;5.414;2022-07-11T03:17:18;18.70;99.90
63897;DHT22;50063;52.084;5.414;2022-07-11T03:19:45;18.70;99.90
63897;DHT22;50063;52.084;5.414;2022-07-11T03:22:13;18.80;99.90
63897;DHT22;50063;52.084;5.414;2022-07-11T03:24:40;18.60;99.90
63897;DHT22;50063;52.084;5.414;2022-07-11T03:27:08;18.60;99.90
63897;DHT22;50063;52.084;5.414;2022-07-11T03:29:39;18.60;99.90
63897;DHT22;50063;52.084;5.414;2022-07-11T03:32:09;18.50;99.90
63897;DHT22;50063;52.084;5.414;2022-07-11T03:34:36;18.60;99.90
63897;DHT22;50063;52.084;5.414;2022-07-11T03:37:03;18.60;99.90
63897;DHT22;50063;52.084;5.414;2022-07-11T03:39:29;18.60;99.90
63897;DHT22;50063;52.084;5.414;2022-07-11T03:41:56;18.40;99.90
63897;DHT22;50063;52.084;5.414;2022-07-11T03:44:23;18.50;99.90
63897;DHT22;50063;52.084;5.414;2022-07-11T03:46:50;18.60;99.90
63897;DHT22;50063;52.084;5.414;2022-07-11T03:49:17;18.40;99.90
63897;DHT22;50063;52.084;5.414;2022-07-11T03:51:44;18.40;99.90
63897;DHT22;50063;52.084;5.414;2022-07-11T03:54:11;18.40;99.90
63897;DHT22;50063;52.084;5.414;2022-07-11T03:56:37;18.30;99.90
63897;DHT22;50063;52.084;5.414;2022-07-11T03:59:04;18.30;99.90
63897;DHT22;50063;52.084;5.414;2022-07-11T04:01:30;18.20;99.90
63897;DHT22;50063;52.084;5.414;2022-07-11T04:03:57;18.30;99.90
63897;DHT22;50063;52.084;5.414;2022-07-11T04:06:24;18.30;99.90
63897;DHT22;50063;52.084;5.414;2022-07-11T04:08:50;18.30;99.90
63897;DHT22;50063;52.084;5.414;2022-07-11T04:11:17;18.20;99.90
63897;DHT22;50063;52.084;5.414;2022-07-11T04:13:44;18.20;99.90
63897;DHT22;50063;52.084;5.414;2022-07-11T04:16:11;18.10;99.90
63897;DHT22;50063;52.084;5.414;2022-07-11T04:18:38;18.20;99.90
63897;DHT22;50063;52.084;5.414;2022-07-11T04:21:05;18.20;99.90
63897;DHT22;50063;52.084;5.414;2022-07-11T04:23:35;18.30;99.90
63897;DHT22;50063;52.084;5.414;2022-07-11T04:26:01;18.20;99.90
63897;DHT22;50063;52.084;5.414;2022-07-11T04:28:28;18.20;99.90
63897;DHT22;50063;52.084;5.414;2022-07-11T04:30:54;18.20;99.90
63897;DHT22;50063;52.084;5.414;2022-07-11T04:33:21;18.20;99.90
63897;DHT22;50063;52.084;5.414;2022-07-11T04:35:48;18.30;99.90
63897;DHT22;50063;52.084;5.414;2022-07-11T04:38:14;18.40;99.90
63897;DHT22;50063;52.084;5.414;2022-07-11T04:40:43;18.20;99.90
63897;DHT22;50063;52.084;5.414;2022-07-11T04:43:09;18.20;99.90
63897;DHT22;50063;52.084;5.414;2022-07-11T04:45:36;18.20;99.90
63897;DHT22;50063;52.084;5.414;2022-07-11T04:48:03;18.20;99.90
63897;DHT22;50063;52.084;5.414;2022-07-11T04:50:29;18.10;99.90
63897;DHT22;50063;52.084;5.414;2022-07-11T04:52:56;18.10;99.90
63897;DHT22;50063;52.084;5.414;2022-07-11T04:55:23;18.20;99.90
63897;DHT22;50063;52.084;5.414;2022-07-11T04:57:50;18.10;99.90
63897;DHT22;50063;52.084;5.414;2022-07-11T05:00:16;18.10;99.90
63897;DHT22;50063;52.084;5.414;2022-07-11T05:02:43;18.10;99.90
63897;DHT22;50063;52.084;5.414;2022-07-11T05:05:10;18.20;99.90
63897;DHT22;50063;52.084;5.414;2022-07-11T05:07:36;18.10;99.90
63897;DHT22;50063;52.084;5.414;2022-07-11T05:10:03;18.20;99.90
63897;DHT22;50063;52.084;5.414;2022-07-11T05:12:30;18.10;99.90
63897;DHT22;50063;52.084;5.414;2022-07-11T05:14:57;18.00;99.90
63897;DHT22;50063;52.084;5.414;2022-07-11T05:17:26;18.10;99.90
63897;DHT22;50063;52.084;5.414;2022-07-11T05:19:53;18.20;99.90
63897;DHT22;50063;52.084;5.414;2022-07-11T05:22:20;18.20;99.90
63897;DHT22;50063;52.084;5.414;2022-07-11T05:24:46;18.00;99.90
63897;DHT22;50063;52.084;5.414;2022-07-11T05:27:13;18.10;99.90
63897;DHT22;50063;52.084;5.414;2022-07-11T05:29:40;18.30;99.90
63897;DHT22;50063;52.084;5.414;2022-07-11T05:32:06;18.10;99.90
63897;DHT22;50063;52.084;5.414;2022-07-11T05:34:33;18.10;99.90
63897;DHT22;50063;52.084;5.414;2022-07-11T05:37:00;18.20;99.90
63897;DHT22;50063;52.084;5.414;2022-07-11T05:39:26;18.20;99.90
63897;DHT22;50063;52.084;5.414;2022-07-11T05:41:53;18.20;99.90
63897;DHT22;50063;52.084;5.414;2022-07-11T05:44:20;18.20;99.90
63897;DHT22;50063;52.084;5.414;2022-07-11T05:46:46;18.30;99.90
63897;DHT22;50063;52.084;5.414;2022-07-11T05:49:13;18.30;99.90
63897;DHT22;50063;52.084;5.414;2022-07-11T05:51:40;18.40;99.90
63897;DHT22;50063;52.084;5.414;2022-07-11T05:54:06;18.30;99.90
63897;DHT22;50063;52.084;5.414;2022-07-11T05:56:33;18.40;99.90
63897;DHT22;50063;52.084;5.414;2022-07-11T05:59:00;18.40;99.90
63897;DHT22;50063;52.084;5.414;2022-07-11T06:01:26;18.40;99.90
63897;DHT22;50063;52.084;5.414;2022-07-11T06:04:01;18.40;99.90
63897;DHT22;50063;52.084;5.414;2022-07-11T06:06:29;18.60;99.90
63897;DHT22;50063;52.084;5.414;2022-07-11T06:08:55;18.60;99.90
63897;DHT22;50063;52.084;5.414;2022-07-11T06:11:22;18.70;99.90
63897;DHT22;50063;52.084;5.414;2022-07-11T06:13:49;18.80;99.90
63897;DHT22;50063;52.084;5.414;2022-07-11T06:16:16;18.80;99.90
63897;DHT22;50063;52.084;5.414;2022-07-11T06:18:43;18.90;99.90
63897;DHT22;50063;52.084;5.414;2022-07-11T06:21:10;19.00;99.90
63897;DHT22;50063;52.084;5.414;2022-07-11T06:23:37;19.00;99.90
63897;DHT22;50063;52.084;5.414;2022-07-11T06:26:04;19.10;99.90
63897;DHT22;50063;52.084;5.414;2022-07-11T06:28:31;18.90;99.90
63897;DHT22;50063;52.084;5.414;2022-07-11T06:30:57;18.80;99.90
63897;DHT22;50063;52.084;5.414;2022-07-11T06:33:24;19.00;99.90
63897;DHT22;50063;52.084;5.414;2022-07-11T06:35:51;19.00;99.90
63897;DHT22;50063;52.084;5.414;2022-07-11T06:38:17;19.20;99.90
63897;DHT22;50063;52.084;5.414;2022-07-11T06:40:44;19.10;99.90
63897;DHT22;50063;52.084;5.414;2022-07-11T06:43:11;19.20;99.90
63897;DHT22;50063;52.084;5.414;2022-07-11T06:45:38;19.30;99.90
63897;DHT22;50063;52.084;5.414;2022-07-11T06:48:05;19.20;99.90
63897;DHT22;50063;52.084;5.414;2022-07-11T06:50:32;19.40;99.90
63897;DHT22;50063;52.084;5.414;2022-07-11T06:52:59;19.50;99.90
63897;DHT22;50063;52.084;5.414;2022-07-11T06:55:25;19.40;99.90
63897;DHT22;50063;52.084;5.414;2022-07-11T06:57:52;19.50;99.90
63897;DHT22;50063;52.084;5.414;2022-07-11T07:00:38;19.70;99.90
63897;DHT22;50063;52.084;5.414;2022-07-11T07:03:05;19.80;99.90
63897;DHT22;50063;52.084;5.414;2022-07-11T07:05:44;19.80;99.90
63897;DHT22;50063;52.084;5.414;2022-07-11T07:08:15;19.60;99.90
63897;DHT22;50063;52.084;5.414;2022-07-11T07:10:42;19.40;99.90
63897;DHT22;50063;52.084;5.414;2022-07-11T07:13:09;19.50;99.90
63897;DHT22;50063;52.084;5.414;2022-07-11T07:15:35;19.60;99.90
63897;DHT22;50063;52.084;5.414;2022-07-11T07:18:02;19.70;99.90
63897;DHT22;50063;52.084;5.414;2022-07-11T07:20:29;19.80;99.90
63897;DHT22;50063;52.084;5.414;2022-07-11T07:22:58;19.90;99.90
63897;DHT22;50063;52.084;5.414;2022-07-11T07:25:25;19.80;99.90
63897;DHT22;50063;52.084;5.414;2022-07-11T07:27:52;19.90;99.90
63897;DHT22;50063;52.084;5.414;2022-07-11T07:30:19;19.90;99.90
63897;DHT22;50063;52.084;5.414;2022-07-11T07:32:45;20.00;99.90
63897;DHT22;50063;52.084;5.414;2022-07-11T07:35:12;20.10;99.90
63897;DHT22;50063;52.084;5.414;2022-07-11T07:37:39;20.10;99.90
63897;DHT22;50063;52.084;5.414;2022-07-11T07:40:05;20.10;99.90
63897;DHT22;50063;52.084;5.414;2022-07-11T07:42:32;20.10;99.90
63897;DHT22;50063;52.084;5.414;2022-07-11T07:44:59;20.20;99.90
63897;DHT22;50063;52.084;5.414;2022-07-11T07:47:25;20.20;99.90
63897;DHT22;50063;52.084;5.414;2022-07-11T07:49:52;20.30;99.90
63897;DHT22;50063;52.084;5.414;2022-07-11T07:52:19;20.40;99.90
63897;DHT22;50063;52.084;5.414;2022-07-11T07:54:45;20.50;99.90
63897;DHT22;50063;52.084;5.414;2022-07-11T07:57:13;20.50;99.90
63897;DHT22;50063;52.084;5.414;2022-07-11T07:59:40;20.60;99.90
63897;DHT22;50063;52.084;5.414;2022-07-11T08:02:06;20.70;99.90
63897;DHT22;50063;52.084;5.414;2022-07-11T08:04:34;20.70;99.90
63897;DHT22;50063;52.084;5.414;2022-07-11T08:07:01;20.80;99.90
63897;DHT22;50063;52.084;5.414;2022-07-11T08:09:27;20.90;99.90
63897;DHT22;50063;52.084;5.414;2022-07-11T08:11:55;20.90;99.90
63897;DHT22;50063;52.084;5.414;2022-07-11T08:14:21;21.00;99.90
63897;DHT22;50063;52.084;5.414;2022-07-11T08:16:49;20.90;99.90
63897;DHT22;50063;52.084;5.414;2022-07-11T08:19:17;21.00;99.90
63897;DHT22;50063;52.084;5.414;2022-07-11T08:21:43;20.90;99.90
63897;DHT22;50063;52.084;5.414;2022-07-11T08:24:10;20.90;99.90
63897;DHT22;50063;52.084;5.414;2022-07-11T08:26:37;21.00;99.90
63897;DHT22;50063;52.084;5.414;2022-07-11T08:29:04;21.30;99.90
63897;DHT22;50063;52.084;5.414;2022-07-11T08:31:31;21.40;99.90
63897;DHT22;50063;52.084;5.414;2022-07-11T08:33:59;21.40;99.90
63897;DHT22;50063;52.084;5.414;2022-07-11T08:36:26;21.30;99.90
63897;DHT22;50063;52.084;5.414;2022-07-11T08:38:55;21.10;99.90
63897;DHT22;50063;52.084;5.414;2022-07-11T08:41:22;21.10;99.90
63897;DHT22;50063;52.084;5.414;2022-07-11T08:43:48;21.10;99.90
63897;DHT22;50063;52.084;5.414;2022-07-11T08:46:15;20.90;99.90
63897;DHT22;50063;52.084;5.414;2022-07-11T08:48:43;20.90;99.90
63897;DHT22;50063;52.084;5.414;2022-07-11T08:51:11;21.00;99.90
63897;DHT22;50063;52.084;5.414;2022-07-11T08:53:39;21.10;99.90
63897;DHT22;50063;52.084;5.414;2022-07-11T08:56:08;21.10;99.90
63897;DHT22;50063;52.084;5.414;2022-07-11T08:58:37;21.20;99.90
63897;DHT22;50063;52.084;5.414;2022-07-11T09:01:05;21.10;99.90
63897;DHT22;50063;52.084;5.414;2022-07-11T09:03:32;21.30;99.90
63897;DHT22;50063;52.084;5.414;2022-07-11T09:06:00;21.30;99.90
63897;DHT22;50063;52.084;5.414;2022-07-11T09:08:28;21.10;99.90
63897;DHT22;50063;52.084;5.414;2022-07-11T09:10:56;21.00;99.90
63897;DHT22;50063;52.084;5.414;2022-07-11T09:13:26;21.10;99.90
63897;DHT22;50063;52.084;5.414;2022-07-11T09:15:54;20.90;99.90
63897;DHT22;50063;52.084;5.414;2022-07-11T09:21:12;20.90;99.90
63897;DHT22;50063;52.084;5.414;2022-07-11T09:23:59;20.90;99.90
63897;DHT22;50063;52.084;5.414;2022-07-11T09:26:45;21.10;99.90
63897;DHT22;50063;52.084;5.414;2022-07-11T09:29:13;21.20;99.90
63897;DHT22;50063;52.084;5.414;2022-07-11T09:31:40;21.10;99.90
63897;DHT22;50063;52.084;5.414;2022-07-11T09:34:11;21.20;99.90
63897;DHT22;50063;52.084;5.414;2022-07-11T09:36:45;21.30;99.90
63897;DHT22;50063;52.084;5.414;2022-07-11T09:39:22;21.20;99.90
63897;DHT22;50063;52.084;5.414;2022-07-11T09:41:49;21.30;99.90
63897;DHT22;50063;52.084;5.414;2022-07-11T09:44:19;21.50;99.90
63897;DHT22;50063;52.084;5.414;2022-07-11T09:46:47;21.50;99.90
63897;DHT22;50063;52.084;5.414;2022-07-11T09:49:15;21.60;99.90
63897;DHT22;50063;52.084;5.414;2022-07-11T09:51:42;21.70;99.90
63897;DHT22;50063;52.084;5.414;2022-07-11T09:54:09;21.60;99.90
63897;DHT22;50063;52.084;5.414;2022-07-11T09:56:44;21.50;99.90
63897;DHT22;50063;52.084;5.414;2022-07-11T09:59:23;21.40;99.90
63897;DHT22;50063;52.084;5.414;2022-07-11T10:01:50;21.50;99.90
63897;DHT22;50063;52.084;5.414;2022-07-11T10:04:17;21.40;99.90
63897;DHT22;50063;52.084;5.414;2022-07-11T10:06:45;21.30;99.90
63897;DHT22;50063;52.084;5.414;2022-07-11T10:09:11;21.30;99.90
63897;DHT22;50063;52.084;5.414;2022-07-11T10:11:38;21.30;99.90
63897;DHT22;50063;52.084;5.414;2022-07-11T10:14:05;21.50;99.90
63897;DHT22;50063;52.084;5.414;2022-07-11T10:16:42;21.60;99.90
63897;DHT22;50063;52.084;5.414;2022-07-11T10:19:33;21.70;99.90
63897;DHT22;50063;52.084;5.414;2022-07-11T10:25:07;21.60;99.90
63897;DHT22;50063;52.084;5.414;2022-07-11T10:27:49;21.80;99.90
63897;DHT22;50063;52.084;5.414;2022-07-11T10:30:43;21.90;99.90
63897;DHT22;50063;52.084;5.414;2022-07-11T10:33:10;21.90;99.90
63897;DHT22;50063;52.084;5.414;2022-07-11T10:35:47;22.00;99.90
63897;DHT22;50063;52.084;5.414;2022-07-11T10:38:13;21.90;99.90
63897;DHT22;50063;52.084;5.414;2022-07-11T10:40:41;21.90;99.90
63897;DHT22;50063;52.084;5.414;2022-07-11T10:43:33;22.10;99.90
63897;DHT22;50063;52.084;5.414;2022-07-11T10:46:01;22.00;99.90
63897;DHT22;50063;52.084;5.414;2022-07-11T10:48:30;22.10;99.90
63897;DHT22;50063;52.084;5.414;2022-07-11T10:51:03;22.20;99.90
63897;DHT22;50063;52.084;5.414;2022-07-11T10:53:31;22.30;99.90
63897;DHT22;50063;52.084;5.414;2022-07-11T10:58:44;22.60;99.90
63897;DHT22;50063;52.084;5.414;2022-07-11T11:03:41;22.70;99.90
63897;DHT22;50063;52.084;5.414;2022-07-11T11:06:09;22.90;99.90
63897;DHT22;50063;52.084;5.414;2022-07-11T11:11:07;23.00;99.90
63897;DHT22;50063;52.084;5.414;2022-07-11T11:16:41;22.90;99.90
63897;DHT22;50063;52.084;5.414;2022-07-11T11:22:00;22.90;99.90
63897;DHT22;50063;52.084;5.414;2022-07-11T11:24:27;22.90;99.90
63897;DHT22;50063;52.084;5.414;2022-07-11T11:26:54;22.90;99.90
63897;DHT22;50063;52.084;5.414;2022-07-11T11:29:26;22.90;99.90
63897;DHT22;50063;52.084;5.414;2022-07-11T11:31:56;23.10;99.90
63897;DHT22;50063;52.084;5.414;2022-07-11T11:34:24;22.90;99.90
63897;DHT22;50063;52.084;5.414;2022-07-11T11:36:55;23.10;99.90
63897;DHT22;50063;52.084;5.414;2022-07-11T11:39:22;23.20;99.90
63897;DHT22;50063;52.084;5.414;2022-07-11T11:41:49;23.10;99.90
63897;DHT22;50063;52.084;5.414;2022-07-11T11:44:16;23.10;99.90
63897;DHT22;50063;52.084;5.414;2022-07-11T11:46:42;23.20;99.90
63897;DHT22;50063;52.084;5.414;2022-07-11T11:49:09;23.30;99.90
63897;DHT22;50063;52.084;5.414;2022-07-11T11:51:36;23.30;99.90
63897;DHT22;50063;52.084;5.414;2022-07-11T11:54:04;23.50;99.90
63897;DHT22;50063;52.084;5.414;2022-07-11T11:56:31;23.70;99.90
63897;DHT22;50063;52.084;5.414;2022-07-11T11:59:03;23.80;99.90
63897;DHT22;50063;52.084;5.414;2022-07-11T12:01:37;24.00;99.90
63897;DHT22;50063;52.084;5.414;2022-07-11T12:04:05;24.00;99.90
63897;DHT22;50063;52.084;5.414;2022-07-11T12:06:41;24.10;99.90
63897;DHT22;50063;52.084;5.414;2022-07-11T12:09:11;24.10;99.90
63897;DHT22;50063;52.084;5.414;2022-07-11T12:11:39;24.10;99.90
63897;DHT22;50063;52.084;5.414;2022-07-11T12:14:07;24.30;99.90
63897;DHT22;50063;52.084;5.414;2022-07-11T12:16:34;24.40;99.90
63897;DHT22;50063;52.084;5.414;2022-07-11T12:19:20;24.40;99.90
63897;DHT22;50063;52.084;5.414;2022-07-11T12:21:52;24.60;99.90
63897;DHT22;50063;52.084;5.414;2022-07-11T12:24:20;24.60;99.90
63897;DHT22;50063;52.084;5.414;2022-07-11T12:26:48;24.60;99.90
63897;DHT22;50063;52.084;5.414;2022-07-11T12:29:16;24.40;99.90
63897;DHT22;50063;52.084;5.414;2022-07-11T12:34:19;24.60;99.90
63897;DHT22;50063;52.084;5.414;2022-07-11T12:36:46;24.70;99.90
63897;DHT22;50063;52.084;5.414;2022-07-11T12:39:26;24.70;99.90
63897;DHT22;50063;52.084;5.414;2022-07-11T12:41:54;24.70;99.90
63897;DHT22;50063;52.084;5.414;2022-07-11T12:44:31;24.70;99.90
63897;DHT22;50063;52.084;5.414;2022-07-11T12:47:17;24.70;99.90
63897;DHT22;50063;52.084;5.414;2022-07-11T12:49:51;24.60;99.90
63897;DHT22;50063;52.084;5.414;2022-07-11T12:52:18;24.60;99.90
63897;DHT22;50063;52.084;5.414;2022-07-11T12:54:45;24.50;99.90
63897;DHT22;50063;52.084;5.414;2022-07-11T12:57:20;24.40;99.90
63897;DHT22;50063;52.084;5.414;2022-07-11T12:59:47;24.10;99.90
63897;DHT22;50063;52.084;5.414;2022-07-11T13:02:14;24.30;99.90
63897;DHT22;50063;52.084;5.414;2022-07-11T13:04:42;24.30;99.90
63897;DHT22;50063;52.084;5.414;2022-07-11T13:07:18;24.40;99.90
63897;DHT22;50063;52.084;5.414;2022-07-11T13:10:04;24.50;99.90
63897;DHT22;50063;52.084;5.414;2022-07-11T13:12:31;24.60;99.90
63897;DHT22;50063;52.084;5.414;2022-07-11T13:15:02;24.70;99.90
63897;DHT22;50063;52.084;5.414;2022-07-11T13:17:53;24.90;99.90
63897;DHT22;50063;52.084;5.414;2022-07-11T13:20:23;25.10;99.90
63897;DHT22;50063;52.084;5.414;2022-07-11T13:22:50;25.20;99.90
63897;DHT22;50063;52.084;5.414;2022-07-11T13:25:18;25.10;99.90
63897;DHT22;50063;52.084;5.414;2022-07-11T13:27:45;25.30;99.90
63897;DHT22;50063;52.084;5.414;2022-07-11T13:30:14;25.50;99.90
63897;DHT22;50063;52.084;5.414;2022-07-11T13:32:43;25.50;99.90
63897;DHT22;50063;52.084;5.414;2022-07-11T13:35:11;25.80;99.90
63897;DHT22;50063;52.084;5.414;2022-07-11T13:37:43;26.00;99.90
63897;DHT22;50063;52.084;5.414;2022-07-11T13:40:12;26.10;99.90
63897;DHT22;50063;52.084;5.414;2022-07-11T13:42:39;26.30;99.90
63897;DHT22;50063;52.084;5.414;2022-07-11T13:45:07;26.30;99.90
63897;DHT22;50063;52.084;5.414;2022-07-11T13:47:34;26.20;99.90
63897;DHT22;50063;52.084;5.414;2022-07-11T13:50:01;25.90;99.90
63897;DHT22;50063;52.084;5.414;2022-07-11T13:52:29;26.00;99.90
63897;DHT22;50063;52.084;5.414;2022-07-11T13:54:56;26.40;99.90
63897;DHT22;50063;52.084;5.414;2022-07-11T13:57:23;27.00;99.90
63897;DHT22;50063;52.084;5.414;2022-07-11T13:59:49;27.50;99.90
63897;DHT22;50063;52.084;5.414;2022-07-11T14:02:16;27.60;99.90
63897;DHT22;50063;52.084;5.414;2022-07-11T14:04:43;27.90;99.90
63897;DHT22;50063;52.084;5.414;2022-07-11T14:07:10;27.90;99.90
63897;DHT22;50063;52.084;5.414;2022-07-11T14:09:40;28.30;99.90
63897;DHT22;50063;52.084;5.414;2022-07-11T14:12:07;28.40;99.90
63897;DHT22;50063;52.084;5.414;2022-07-11T14:14:34;28.60;99.90
63897;DHT22;50063;52.084;5.414;2022-07-11T14:17:01;28.40;99.90
63897;DHT22;50063;52.084;5.414;2022-07-11T14:19:28;28.60;99.90
63897;DHT22;50063;52.084;5.414;2022-07-11T14:21:55;28.90;99.90
63897;DHT22;50063;52.084;5.414;2022-07-11T14:24:22;29.40;99.90
63897;DHT22;50063;52.084;5.414;2022-07-11T14:26:49;29.90;99.90
63897;DHT22;50063;52.084;5.414;2022-07-11T14:29:16;30.10;99.90
63897;DHT22;50063;52.084;5.414;2022-07-11T14:31:42;30.60;99.90
63897;DHT22;50063;52.084;5.414;2022-07-11T14:34:09;31.00;99.90
63897;DHT22;50063;52.084;5.414;2022-07-11T14:36:36;31.00;99.90
63897;DHT22;50063;52.084;5.414;2022-07-11T14:39:03;31.60;99.90
63897;DHT22;50063;52.084;5.414;2022-07-11T14:41:30;31.20;99.90
63897;DHT22;50063;52.084;5.414;2022-07-11T14:43:56;31.50;99.90
63897;DHT22;50063;52.084;5.414;2022-07-11T14:46:23;30.90;99.90
63897;DHT22;50063;52.084;5.414;2022-07-11T14:48:50;32.00;99.90
63897;DHT22;50063;52.084;5.414;2022-07-11T14:51:16;32.60;99.90
63897;DHT22;50063;52.084;5.414;2022-07-11T14:54:03;32.20;99.90
63897;DHT22;50063;52.084;5.414;2022-07-11T14:56:30;31.80;99.90
63897;DHT22;50063;52.084;5.414;2022-07-11T14:59:00;32.40;99.90
63897;DHT22;50063;52.084;5.414;2022-07-11T15:01:27;32.60;99.90
63897;DHT22;50063;52.084;5.414;2022-07-11T15:03:53;33.20;99.90
63897;DHT22;50063;52.084;5.414;2022-07-11T15:06:21;32.00;99.90
63897;DHT22;50063;52.084;5.414;2022-07-11T15:09:08;31.90;99.90
63897;DHT22;50063;52.084;5.414;2022-07-11T15:11:53;31.80;99.90
63897;DHT22;50063;52.084;5.414;2022-07-11T15:14:38;32.00;99.90
63897;DHT22;50063;52.084;5.414;2022-07-11T15:17:05;30.80;99.90
63897;DHT22;50063;52.084;5.414;2022-07-11T15:19:32;30.80;99.90
63897;DHT22;50063;52.084;5.414;2022-07-11T15:21:58;31.50;99.40
63897;DHT22;50063;52.084;5.414;2022-07-11T15:24:25;32.50;98.80
63897;DHT22;50063;52.084;5.414;2022-07-11T15:26:52;33.10;99.70
63897;DHT22;50063;52.084;5.414;2022-07-11T15:29:19;33.80;99.70
63897;DHT22;50063;52.084;5.414;2022-07-11T15:31:45;34.20;99.10
63897;DHT22;50063;52.084;5.414;2022-07-11T15:34:13;34.70;97.90
63897;DHT22;50063;52.084;5.414;2022-07-11T15:36:40;34.50;97.60
63897;DHT22;50063;52.084;5.414;2022-07-11T15:39:07;34.40;96.90
63897;DHT22;50063;52.084;5.414;2022-07-11T15:41:34;35.00;97.40
63897;DHT22;50063;52.084;5.414;2022-07-11T15:44:00;35.10;96.80
63897;DHT22;50063;52.084;5.414;2022-07-11T15:46:27;35.50;96.00
63897;DHT22;50063;52.084;5.414;2022-07-11T15:49:00;35.70;96.40
63897;DHT22;50063;52.084;5.414;2022-07-11T15:51:27;36.20;95.00
63897;DHT22;50063;52.084;5.414;2022-07-11T15:53:55;35.60;94.40
63897;DHT22;50063;52.084;5.414;2022-07-11T15:56:22;36.30;95.70
63897;DHT22;50063;52.084;5.414;2022-07-11T15:58:49;36.00;94.00